Time;durP1;ratioP1;P1;durP2;ratioP2;P2;SDS_P1;SDS_P2;PMS_P1;PMS_P2;Temp;Humidity;BMP_temperature;BMP_pressure;BME280_temperature;BME280_humidity;BME280_pressure;Samples;Min_cycle;Max_cycle;Signal;HPM_P1;HPM_P2
2023/10/20 00:01:37;;;;;;;36.10;12.88;;;;;;;6.81;100.00;98716.91;6121385;28;20123;-70
2023/10/20 00:04:33;;;;;;;31.93;11.43;;;;;;;6.73;100.00;98714.28;6121186;28;20043;-70
2023/10/20 00:07:28;;;;;;;40.47;14.45;;;;;;;6.76;100.00;98726.31;6121932;28;20031;-72
2023/10/20 00:10:24;;;;;;;52.50;16.60;;;;;;;6.78;100.00;98737.47;6121264;28;20040;-70
2023/10/20 00:13:19;;;;;;;37.33;13.43;;;;;;;6.82;100.00;98749.31;6121682;28;20468;-71
2023/10/20 00:16:14;;;;;;;42.23;14.40;;;;;;;6.81;100.00;98742.41;6119222;28;20036;-70
2023/10/20 00:19:10;;;;;;;39.23;15.50;;;;;;;6.81;100.00;98731.88;6106386;28;20035;-70
2023/10/20 00:22:06;;;;;;;43.80;14.18;;;;;;;6.82;100.00;98723.00;6121070;28;21602;-70
2023/10/20 00:25:01;;;;;;;38.35;13.52;;;;;;;6.78;100.00;98725.13;6121635;28;20028;-71
2023/10/20 00:27:56;;;;;;;39.92;14.45;;;;;;;6.83;100.00;98735.16;6119504;28;20029;-71
2023/10/20 00:30:52;;;;;;;37.80;13.73;;;;;;;6.73;100.00;98711.66;6120810;28;20519;-70
2023/10/20 00:33:50;;;;;;;42.33;14.40;;;;;;;6.79;100.00;98718.88;6109665;28;20423;-71
2023/10/20 00:36:45;;;;;;;40.17;15.63;;;;;;;6.76;100.00;98719.22;6117578;28;21191;-69
2023/10/20 00:39:40;;;;;;;41.37;15.93;;;;;;;6.73;100.00;98698.50;6120815;28;20120;-70
2023/10/20 00:42:36;;;;;;;46.87;16.13;;;;;;;6.80;100.00;98715.25;6121020;28;20028;-71
2023/10/20 00:45:31;;;;;;;41.08;14.32;;;;;;;6.80;100.00;98711.78;6119833;28;20297;-71
2023/10/20 00:48:26;;;;;;;36.27;13.20;;;;;;;6.79;100.00;98705.72;6103816;28;20099;-73
2023/10/20 00:51:22;;;;;;;40.83;13.53;;;;;;;6.82;100.00;98707.97;6120939;28;20471;-71
2023/10/20 00:54:17;;;;;;;38.10;13.70;;;;;;;6.84;100.00;98707.81;6106754;28;20391;-71
2023/10/20 00:57:16;;;;;;;42.40;16.40;;;;;;;6.82;100.00;98686.91;6106487;28;20270;-72
2023/10/20 01:00:13;;;;;;;42.60;14.68;;;;;;;6.79;100.00;98666.22;6120968;28;20120;-72
2023/10/20 01:03:10;;;;;;;36.47;13.52;;;;;;;6.85;100.00;98685.78;6120463;28;20056;-72
2023/10/20 01:06:06;;;;;;;39.58;11.85;;;;;;;6.84;100.00;98702.56;6105490;28;20041;-71
2023/10/20 01:09:01;;;;;;;44.07;14.27;;;;;;;6.86;100.00;98697.94;6103311;28;20098;-71
2023/10/20 01:11:57;;;;;;;35.60;12.73;;;;;;;6.84;100.00;98700.75;6120677;28;20262;-70
2023/10/20 01:14:52;;;;;;;39.13;13.73;;;;;;;6.79;100.00;98692.53;6123213;28;20039;-71
2023/10/20 01:17:47;;;;;;;29.13;11.77;;;;;;;6.85;100.00;98702.38;6125337;28;20090;-72
2023/10/20 01:20:44;;;;;;;34.57;13.77;;;;;;;6.83;100.00;98704.38;6125319;28;20024;-70
2023/10/20 01:23:40;;;;;;;35.72;13.65;;;;;;;6.82;100.00;98692.16;6124231;28;20040;-71
2023/10/20 01:26:35;;;;;;;37.53;13.18;;;;;;;6.80;100.00;98678.38;6120124;28;20037;-71
2023/10/20 01:29:31;;;;;;;46.50;17.73;;;;;;;6.76;100.00;98669.19;6124800;28;20028;-70
2023/10/20 01:32:26;;;;;;;35.22;13.07;;;;;;;6.78;100.00;98669.81;6124807;28;20024;-71
2023/10/20 01:35:22;;;;;;;39.37;12.60;;;;;;;6.75;100.00;98667.53;6125169;28;20503;-71
2023/10/20 01:38:17;;;;;;;40.87;14.17;;;;;;;6.79;100.00;98670.66;6124826;28;20675;-76
2023/10/20 01:41:12;;;;;;;36.93;13.70;;;;;;;6.79;100.00;98668.84;6124998;28;20048;-72
2023/10/20 01:44:10;;;;;;;38.57;15.43;;;;;;;6.73;100.00;98664.25;6124584;28;20279;-72
2023/10/20 01:47:06;;;;;;;30.48;12.45;;;;;;;6.69;100.00;98659.47;6124902;28;20074;-72
2023/10/20 01:50:01;;;;;;;27.83;10.57;;;;;;;6.73;100.00;98660.78;6124915;28;20388;-72
2023/10/20 01:52:57;;;;;;;33.25;12.88;;;;;;;6.73;100.00;98655.53;6122254;28;20283;-71
2023/10/20 01:55:52;;;;;;;28.80;12.07;;;;;;;6.72;100.00;98638.91;6124135;28;20537;-71
2023/10/20 01:58:47;;;;;;;36.63;14.43;;;;;;;6.72;100.00;98644.16;6124672;28;20060;-72
2023/10/20 02:01:42;;;;;;;25.23;9.90;;;;;;;6.67;100.00;98619.34;6123906;28;20028;-71
2023/10/20 02:04:38;;;;;;;32.07;12.20;;;;;;;6.64;100.00;98619.69;6124323;28;20044;-72
2023/10/20 02:07:33;;;;;;;31.30;12.73;;;;;;;6.67;100.00;98625.44;6124301;28;20035;-72
2023/10/20 02:10:31;;;;;;;30.33;12.07;;;;;;;6.69;100.00;98633.16;6123589;28;20048;-73
2023/10/20 02:13:26;;;;;;;33.22;11.98;;;;;;;6.67;100.00;98614.91;6118225;28;20412;-72
2023/10/20 02:16:22;;;;;;;40.85;14.20;;;;;;;6.68;100.00;98599.91;6124051;28;20024;-71
2023/10/20 02:19:17;;;;;;;41.87;12.23;;;;;;;6.63;100.00;98576.75;6124193;28;20036;-71
2023/10/20 02:22:12;;;;;;;30.73;11.50;;;;;;;6.67;100.00;98572.75;6123716;28;20024;-73
2023/10/20 02:25:10;;;;;;;33.90;11.67;;;;;;;6.67;100.00;98578.03;6122734;28;20111;-73
2023/10/20 02:28:07;;;;;;;33.55;12.07;;;;;;;6.61;100.00;98568.19;6123909;28;20494;-71
2023/10/20 02:31:11;;;;;;;37.10;14.82;;;;;;;6.66;100.00;98571.13;6123884;28;20107;-72
2023/10/20 02:34:07;;;;;;;41.42;14.05;;;;;;;6.65;100.00;98558.97;6122996;28;20032;-72
2023/10/20 02:37:02;;;;;;;44.47;15.20;;;;;;;6.57;100.00;98561.63;6123771;28;20047;-73
2023/10/20 02:39:58;;;;;;;38.78;13.88;;;;;;;6.60;100.00;98582.38;6123372;28;20029;-72
2023/10/20 02:42:53;;;;;;;36.27;12.93;;;;;;;6.63;100.00;98595.19;6122446;28;20036;-74
2023/10/20 02:45:49;;;;;;;37.97;13.20;;;;;;;6.57;100.00;98582.72;6119181;28;20399;-72
2023/10/20 02:48:44;;;;;;;32.83;13.93;;;;;;;6.60;100.00;98588.44;6123486;28;20036;-74
2023/10/20 02:51:40;;;;;;;35.23;13.17;;;;;;;6.55;100.00;98569.69;6122968;28;20772;-71
2023/10/20 02:54:35;;;;;;;37.00;13.43;;;;;;;6.56;100.00;98562.63;6122827;28;20283;-70
2023/10/20 02:57:31;;;;;;;41.67;12.93;;;;;;;6.61;100.00;98568.19;6123251;28;20756;-73
2023/10/20 03:00:27;;;;;;;38.63;13.18;;;;;;;6.58;100.00;98571.16;6123124;28;20032;-73
2023/10/20 03:03:22;;;;;;;39.90;15.13;;;;;;;6.54;100.00;98570.72;6122511;28;20037;-73
2023/10/20 03:06:19;;;;;;;31.00;12.57;;;;;;;6.59;100.00;98559.66;6123122;28;20033;-73
2023/10/20 03:09:14;;;;;;;36.13;12.55;;;;;;;6.60;100.00;98569.19;6122887;28;20029;-73
2023/10/20 03:12:09;;;;;;;34.23;11.93;;;;;;;6.56;100.00;98565.25;6122663;28;20028;-73
2023/10/20 03:15:07;;;;;;;37.30;13.37;;;;;;;6.48;100.00;98547.69;6104765;28;20056;-72
2023/10/20 03:18:03;;;;;;;44.10;13.35;;;;;;;6.52;100.00;98542.91;6122696;28;20090;-71
2023/10/20 03:21:01;;;;;;;46.38;17.17;;;;;;;6.54;100.00;98546.19;6130546;28;20020;-72
2023/10/20 03:23:56;;;;;;;32.00;12.73;;;;;;;6.52;100.00;98533.19;6119483;28;20533;-72
2023/10/20 03:26:51;;;;;;;39.23;13.33;;;;;;;6.54;100.00;98540.91;6124406;28;20028;-72
2023/10/20 03:29:47;;;;;;;40.23;14.00;;;;;;;6.49;100.00;98548.53;6129798;28;20021;-72
2023/10/20 03:32:45;;;;;;;41.30;14.75;;;;;;;6.53;100.00;98552.44;6121996;28;20033;-73
2023/10/20 03:35:41;;;;;;;41.00;15.55;;;;;;;6.49;100.00;98543.25;6120668;28;20057;-73
2023/10/20 03:38:37;;;;;;;43.93;16.17;;;;;;;6.51;100.00;98541.25;6126512;28;20058;-72
2023/10/20 03:41:34;;;;;;;44.05;15.35;;;;;;;6.50;100.00;98539.63;6131408;28;20037;-73
2023/10/20 03:44:29;;;;;;;41.47;14.35;;;;;;;6.48;100.00;98529.28;6128573;28;20377;-73
2023/10/20 03:47:27;;;;;;;42.40;14.43;;;;;;;6.48;100.00;98528.44;6103475;28;20039;-73
2023/10/20 03:50:23;;;;;;;39.35;13.88;;;;;;;6.53;100.00;98534.00;6122031;28;20745;-73
2023/10/20 03:53:27;;;;;;;44.73;13.77;;;;;;;6.51;100.00;98530.72;6122168;28;20078;-74
2023/10/20 03:56:23;;;;;;;35.67;12.65;;;;;;;6.51;100.00;98534.19;6122050;28;20062;-73
2023/10/20 03:59:18;;;;;;;45.65;16.60;;;;;;;6.50;100.00;98529.09;6121660;28;20039;-73
2023/10/20 04:02:14;;;;;;;35.90;13.73;;;;;;;6.41;100.00;98509.09;6120590;28;20036;-72
2023/10/20 04:05:09;;;;;;;46.10;15.30;;;;;;;6.43;100.00;98501.81;6121933;28;20028;-73
2023/10/20 04:08:05;;;;;;;39.33;13.52;;;;;;;6.48;100.00;98505.56;6121508;28;20463;-74
2023/10/20 04:11:01;;;;;;;43.53;15.15;;;;;;;6.39;100.00;98492.63;6121419;28;20064;-73
2023/10/20 04:13:56;;;;;;;51.72;19.25;;;;;;;6.38;100.00;98493.63;6121769;28;20031;-73
2023/10/20 04:16:51;;;;;;;40.23;13.80;;;;;;;6.37;100.00;98494.63;6116767;28;20043;-72
2023/10/20 04:19:47;;;;;;;38.37;14.43;;;;;;;6.43;100.00;98486.03;6121282;28;20089;-73
2023/10/20 04:22:43;;;;;;;38.77;14.60;;;;;;;6.38;100.00;98496.28;6121529;28;20040;-71
2023/10/20 04:25:52;;;;;;;33.38;10.73;;;;;;;6.39;100.00;98509.25;6126191;28;20280;-73
2023/10/20 04:28:51;;;;;;;32.33;12.27;;;;;;;6.38;100.00;98498.91;6128426;28;20043;-74
2023/10/20 04:48:15;;;;;;;37.60;14.10;;;;;;;6.30;100.00;98443.69;6121095;28;20036;-73
2023/10/20 04:51:19;;;;;;;31.15;13.20;;;;;;;6.29;100.00;98431.50;6118333;28;20028;-74
2023/10/20 04:54:23;;;;;;;29.58;12.65;;;;;;;6.33;100.00;98422.28;6121033;28;20029;-74
2023/10/20 05:03:16;;;;;;;36.78;14.88;;;;;;;6.30;100.00;98407.66;6117967;28;20037;-75
2023/10/20 05:06:26;;;;;;;33.17;12.55;;;;;;;6.37;100.00;98418.28;6118494;28;20086;-76
2023/10/20 05:09:25;;;;;;;32.50;14.35;;;;;;;6.35;100.00;98412.41;6120921;28;20029;-74
2023/10/20 05:12:20;;;;;;;36.60;14.23;;;;;;;6.35;100.00;98420.28;6120724;28;20036;-75
2023/10/20 05:15:17;;;;;;;29.80;12.85;;;;;;;6.29;100.00;98411.28;6125400;28;20091;-75
2023/10/20 05:18:12;;;;;;;32.53;14.07;;;;;;;6.31;100.00;98413.72;6120702;28;20047;-75
2023/10/20 05:21:08;;;;;;;27.30;12.27;;;;;;;6.29;100.00;98410.47;6102494;28;20028;-75
2023/10/20 05:24:04;;;;;;;33.88;13.00;;;;;;;6.30;100.00;98417.38;6121029;28;20043;-75
2023/10/20 05:27:00;;;;;;;33.03;12.25;;;;;;;6.30;100.00;98412.09;6120863;28;20464;-75
2023/10/20 05:29:55;;;;;;;28.60;13.98;;;;;;;6.27;100.00;98420.34;6117926;28;20028;-75
2023/10/20 05:32:50;;;;;;;29.35;11.82;;;;;;;6.31;100.00;98419.00;6120771;28;20035;-74
2023/10/20 05:35:46;;;;;;;31.20;10.60;;;;;;;6.31;100.00;98405.81;6119044;28;20032;-73
2023/10/20 05:38:41;;;;;;;32.28;12.40;;;;;;;6.30;100.00;98391.06;6120434;28;20450;-75
2023/10/20 05:41:36;;;;;;;26.87;11.70;;;;;;;6.26;100.00;98382.69;6120315;28;20098;-75
2023/10/20 05:44:32;;;;;;;30.60;13.68;;;;;;;6.27;100.00;98367.72;6120389;28;20033;-73
2023/10/20 05:47:30;;;;;;;29.02;11.73;;;;;;;6.30;100.00;98385.78;6119877;28;20028;-75
2023/10/20 05:50:25;;;;;;;22.50;10.57;;;;;;;6.31;100.00;98390.03;6119809;28;20035;-74
2023/10/20 05:53:21;;;;;;;24.33;10.17;;;;;;;6.26;100.00;98384.50;6120343;28;20024;-74
2023/10/20 05:56:16;;;;;;;24.33;9.93;;;;;;;6.31;100.00;98392.66;6120497;28;20116;-75
2023/10/20 05:59:11;;;;;;;27.25;11.70;;;;;;;6.33;100.00;98402.03;6119725;28;20325;-74
2023/10/20 06:02:07;;;;;;;23.97;11.67;;;;;;;6.34;100.00;98392.31;6122262;28;20379;-73
2023/10/20 06:05:03;;;;;;;23.55;10.05;;;;;;;6.33;100.00;98394.13;6124593;28;20297;-74
2023/10/20 06:07:58;;;;;;;27.75;11.50;;;;;;;6.35;100.00;98378.19;6127070;28;20561;-74
2023/10/20 06:10:53;;;;;;;18.00;10.30;;;;;;;6.34;100.00;98384.44;6133412;28;20036;-74
2023/10/20 06:13:49;;;;;;;21.43;8.97;;;;;;;6.31;100.00;98377.69;6135193;28;20036;-76
2023/10/20 06:16:44;;;;;;;18.98;8.23;;;;;;;6.33;100.00;98367.81;6124674;28;20274;-74
2023/10/20 06:19:40;;;;;;;16.37;6.90;;;;;;;6.35;100.00;98376.38;6117356;28;20044;-74
2023/10/20 06:22:35;;;;;;;15.13;7.43;;;;;;;6.32;100.00;98368.00;6124124;28;20059;-72
2023/10/20 06:25:35;;;;;;;16.03;8.00;;;;;;;6.39;100.00;98363.66;6124354;28;20056;-73
2023/10/20 06:28:31;;;;;;;18.33;7.97;;;;;;;6.38;100.00;98362.03;6123744;28;20081;-73
2023/10/20 06:31:42;;;;;;;14.73;7.20;;;;;;;6.36;100.00;98345.63;6123984;28;20471;-73
2023/10/20 06:34:41;;;;;;;16.65;7.65;;;;;;;6.42;100.00;98336.97;6116392;28;20619;-74
2023/10/20 06:37:41;;;;;;;16.08;7.68;;;;;;;6.34;100.00;98329.16;6123557;28;20375;-73
2023/10/20 06:40:39;;;;;;;16.77;8.88;;;;;;;6.37;100.00;98336.69;6123488;28;20032;-73
2023/10/20 06:43:35;;;;;;;14.90;7.53;;;;;;;6.43;100.00;98341.25;6109446;28;20495;-75
2023/10/20 06:46:30;;;;;;;14.47;8.07;;;;;;;6.40;100.00;98325.81;6123680;28;20090;-74
2023/10/20 06:49:26;;;;;;;18.13;7.23;;;;;;;6.40;100.00;98323.19;6123511;28;20023;-73
2023/10/20 06:52:21;;;;;;;17.70;7.07;;;;;;;6.43;100.00;98317.56;6116803;28;20313;-74
2023/10/20 06:55:17;;;;;;;12.50;7.07;;;;;;;6.47;100.00;98303.03;6123470;28;20112;-74
2023/10/20 06:58:13;;;;;;;13.87;6.80;;;;;;;6.45;100.00;98305.88;6123454;28;20032;-73
2023/10/20 07:01:08;;;;;;;13.30;6.47;;;;;;;6.44;100.00;98298.16;6122580;28;20294;-74
2023/10/20 07:04:06;;;;;;;11.63;4.97;;;;;;;6.48;100.00;98283.63;6123291;28;20016;-74
2023/10/20 07:07:01;;;;;;;14.93;5.93;;;;;;;6.46;100.00;98289.09;6118329;28;21580;-74
2023/10/20 07:09:57;;;;;;;12.82;6.05;;;;;;;6.52;100.00;98285.72;6121539;28;20456;-74
2023/10/20 07:12:52;;;;;;;15.13;5.97;;;;;;;6.52;100.00;98295.44;6118349;28;20082;-74
2023/10/20 07:15:52;;;;;;;11.87;5.77;;;;;;;6.54;100.00;98288.19;6105025;28;20036;-75
2023/10/20 07:18:47;;;;;;;11.88;5.47;;;;;;;6.56;100.00;98276.47;6122669;28;20039;-74
2023/10/20 07:21:43;;;;;;;13.68;4.90;;;;;;;6.54;100.00;98282.91;6122337;28;20025;-75
2023/10/20 07:24:39;;;;;;;9.73;4.90;;;;;;;6.49;100.00;98283.47;6121999;28;20044;-76
2023/10/20 07:27:34;;;;;;;10.45;5.45;;;;;;;6.53;100.00;98303.16;6122578;28;20278;-76
2023/10/20 07:30:30;;;;;;;9.23;5.10;;;;;;;6.52;100.00;98284.91;6122048;28;20059;-74
2023/10/20 07:33:25;;;;;;;8.30;4.60;;;;;;;6.54;100.00;98285.56;6122628;28;20275;-76
2023/10/20 07:36:21;;;;;;;7.77;4.20;;;;;;;6.47;100.00;98271.44;6124782;28;20055;-74
2023/10/20 07:39:16;;;;;;;5.93;3.05;;;;;;;6.52;100.00;98277.03;6133407;28;20333;-73
2023/10/20 07:42:12;;;;;;;8.82;3.90;;;;;;;6.50;100.00;98268.47;6130021;28;20081;-75
2023/10/20 07:45:07;;;;;;;7.67;3.63;;;;;;;6.50;100.00;98276.38;6122168;28;20035;-73
2023/10/20 07:48:05;;;;;;;6.50;3.55;;;;;;;6.42;100.00;98274.63;6122215;28;20344;-74
2023/10/20 07:51:01;;;;;;;5.22;2.88;;;;;;;6.51;100.00;98278.00;6121765;28;20032;-74
2023/10/20 07:53:56;;;;;;;7.93;3.35;;;;;;;6.43;100.00;98249.13;6122276;28;20058;-77
2023/10/20 07:56:52;;;;;;;6.57;3.53;;;;;;;6.50;100.00;98261.38;6123216;28;20040;-77
2023/10/20 07:59:47;;;;;;;6.97;3.63;;;;;;;6.48;100.00;98230.97;6121642;28;20479;-75
2023/10/20 08:02:42;;;;;;;7.23;3.20;;;;;;;6.44;100.00;98251.56;6121783;28;20497;-74
2023/10/20 08:05:38;;;;;;;5.80;2.58;;;;;;;6.40;100.00;98231.06;6121804;28;20540;-74
2023/10/20 08:08:34;;;;;;;5.50;2.92;;;;;;;6.44;100.00;98246.31;6121584;28;20056;-76
2023/10/20 08:11:29;;;;;;;4.13;2.20;;;;;;;6.48;100.00;98252.03;6121151;28;20440;-74
2023/10/20 08:14:27;;;;;;;5.45;3.22;;;;;;;6.47;100.00;98245.13;6121295;28;20262;-73
2023/10/20 08:17:23;;;;;;;5.95;2.85;;;;;;;6.48;100.00;98244.97;6121430;28;20380;-76
2023/10/20 08:20:18;;;;;;;6.57;3.15;;;;;;;6.48;100.00;98239.69;6120894;28;20029;-74
2023/10/20 08:23:13;;;;;;;6.13;2.67;;;;;;;6.46;100.00;98227.72;6121977;28;20025;-75
2023/10/20 08:26:15;;;;;;;5.10;2.70;;;;;;;6.39;100.00;98232.06;6121588;28;20267;-76
2023/10/20 08:29:11;;;;;;;6.13;2.85;;;;;;;6.41;100.00;98235.34;6124888;28;20024;-76
2023/10/20 08:32:07;;;;;;;5.47;2.22;;;;;;;6.31;100.00;98206.66;6130195;28;20485;-74
2023/10/20 08:35:03;;;;;;;5.30;2.30;;;;;;;6.39;100.00;98213.63;6123941;28;20521;-74
2023/10/20 08:37:58;;;;;;;4.82;2.08;;;;;;;6.38;100.00;98210.22;6121301;28;20024;-75
2023/10/20 08:40:54;;;;;;;4.40;1.80;;;;;;;6.41;100.00;98220.34;6120974;28;20078;-73
2023/10/20 08:43:50;;;;;;;5.33;2.27;;;;;;;6.45;100.00;98210.28;6121091;28;20139;-74
2023/10/20 08:46:45;;;;;;;5.55;2.33;;;;;;;6.38;100.00;98201.50;6121234;28;20332;-75
2023/10/20 08:49:41;;;;;;;5.57;2.43;;;;;;;6.33;100.00;98211.75;6120778;28;20036;-74
2023/10/20 08:52:36;;;;;;;5.40;2.10;;;;;;;6.37;100.00;98203.28;6120855;28;20098;-74
2023/10/20 08:55:32;;;;;;;3.25;1.77;;;;;;;6.34;100.00;98202.84;6111530;28;20028;-75
2023/10/20 08:58:29;;;;;;;3.00;1.50;;;;;;;6.31;100.00;98197.94;6112634;28;20067;-74
2023/10/20 09:01:25;;;;;;;2.85;1.48;;;;;;;6.31;100.00;98204.00;6120693;28;20036;-75
2023/10/20 09:04:24;;;;;;;2.87;1.63;;;;;;;6.32;100.00;98194.31;6120909;28;20039;-75
2023/10/20 09:07:23;;;;;;;2.83;1.48;;;;;;;6.28;100.00;98193.03;6120788;28;20095;-76
2023/10/20 09:10:18;;;;;;;2.63;1.50;;;;;;;6.33;100.00;98207.28;6120444;28;20035;-74
2023/10/20 09:13:13;;;;;;;4.68;1.60;;;;;;;6.33;100.00;98209.91;6121653;28;20024;-75
2023/10/20 09:16:11;;;;;;;6.10;2.47;;;;;;;6.32;100.00;98221.44;6121017;28;20029;-76
2023/10/20 09:19:09;;;;;;;2.45;1.35;;;;;;;6.31;100.00;98217.16;6120362;28;20430;-77
2023/10/20 09:22:05;;;;;;;3.28;1.50;;;;;;;6.21;100.00;98218.44;6120878;28;20044;-77
2023/10/20 09:25:00;;;;;;;3.50;1.98;;;;;;;6.18;100.00;98211.72;6120521;28;20036;-77
2023/10/20 09:27:56;;;;;;;3.13;1.77;;;;;;;6.30;100.00;98225.25;6120704;28;20029;-76
2023/10/20 09:30:53;;;;;;;4.85;2.10;;;;;;;6.25;100.00;98227.63;6120421;28;20028;-77
2023/10/20 09:33:49;;;;;;;4.90;2.28;;;;;;;6.22;100.00;98233.25;6120506;28;20037;-76
2023/10/20 09:36:45;;;;;;;3.42;1.85;;;;;;;6.19;100.00;98234.41;6117217;28;20497;-76
2023/10/20 09:39:43;;;;;;;3.50;2.03;;;;;;;6.13;100.00;98236.94;6124754;28;20028;-75
2023/10/20 09:43:12;;;;;;;3.22;1.33;;;;;;;6.17;100.00;98241.66;6124936;28;20044;-76
2023/10/20 09:46:40;;;;;;;3.30;1.50;;;;;;;6.20;100.00;98248.38;6107314;28;20078;-75
2023/10/20 09:49:36;;;;;;;3.45;1.83;;;;;;;6.21;100.00;98250.00;6123739;28;20035;-76
2023/10/20 09:52:32;;;;;;;5.80;2.00;;;;;;;6.19;100.00;98250.19;6111574;28;20025;-75
2023/10/20 09:55:28;;;;;;;3.40;2.03;;;;;;;6.24;100.00;98271.53;6124908;28;20059;-75
2023/10/20 09:58:25;;;;;;;4.32;2.30;;;;;;;6.14;100.00;98246.47;6124353;28;20516;-75
2023/10/20 10:01:21;;;;;;;2.90;1.48;;;;;;;6.14;100.00;98263.09;6127759;28;20033;-78
2023/10/20 10:04:24;;;;;;;3.25;1.95;;;;;;;6.23;100.00;98271.69;6124899;28;20039;-76
2023/10/20 10:07:29;;;;;;;3.30;1.70;;;;;;;6.18;100.00;98274.88;6124542;28;20459;-76
2023/10/20 10:10:25;;;;;;;3.38;1.55;;;;;;;6.17;100.00;98281.13;6124480;28;20032;-76
2023/10/20 10:13:31;;;;;;;2.67;1.30;;;;;;;6.13;100.00;98273.75;6124384;28;20020;-78
2023/10/20 10:16:27;;;;;;;2.60;1.30;;;;;;;6.07;100.00;98250.78;6128256;28;20302;-76
2023/10/20 10:19:26;;;;;;;2.67;1.40;;;;;;;6.11;100.00;98258.16;6124090;28;20108;-76
2023/10/20 10:22:25;;;;;;;4.47;1.42;;;;;;;6.02;100.00;98242.63;6123868;28;20468;-75
2023/10/20 10:25:35;;;;;;;2.30;1.30;;;;;;;6.12;100.00;98256.34;6124038;28;20060;-78
2023/10/20 10:28:31;;;;;;;4.57;1.88;;;;;;;6.17;100.00;98259.28;6123928;28;20388;-77
2023/10/20 10:31:33;;;;;;;4.07;1.77;;;;;;;6.15;100.00;98263.88;6125981;28;20033;-77
2023/10/20 10:34:40;;;;;;;4.47;1.30;;;;;;;6.05;100.00;98256.25;6109142;28;20262;-77
2023/10/20 10:37:37;;;;;;;7.07;2.95;;;;;;;6.06;100.00;98252.59;6121887;28;20032;-80
2023/10/20 10:40:34;;;;;;;5.57;2.47;;;;;;;6.12;100.00;98266.84;6123399;28;20032;-77
2023/10/20 10:43:30;;;;;;;3.78;1.42;;;;;;;6.12;100.00;98266.84;6123893;28;20033;-77
2023/10/20 10:46:35;;;;;;;2.38;1.10;;;;;;;6.11;100.00;98259.97;6122979;28;20090;-77
2023/10/20 10:49:32;;;;;;;3.30;1.63;;;;;;;6.15;100.00;98245.47;6125179;28;20032;-76
2023/10/20 10:52:27;;;;;;;5.32;2.13;;;;;;;6.18;100.00;98243.28;6123118;28;20375;-75
2023/10/20 10:55:24;;;;;;;3.67;1.87;;;;;;;6.16;100.00;98223.41;6123792;28;20029;-77
2023/10/20 10:58:19;;;;;;;3.83;1.55;;;;;;;6.12;100.00;98214.25;6128015;28;20017;-76
2023/10/20 11:01:15;;;;;;;1.43;0.87;;;;;;;6.17;100.00;98227.69;6112660;28;20075;-75
2023/10/20 11:04:10;;;;;;;4.50;2.15;;;;;;;6.08;100.00;98205.09;6124639;28;20405;-76
2023/10/20 11:07:06;;;;;;;3.00;1.35;;;;;;;6.08;100.00;98187.50;6105377;28;20403;-79
2023/10/20 11:10:03;;;;;;;2.90;1.13;;;;;;;6.20;100.00;98201.00;6126013;28;20036;-75
2023/10/20 11:12:58;;;;;;;3.58;1.60;;;;;;;6.13;100.00;98202.72;6122987;28;20278;-75
2023/10/20 11:15:54;;;;;;;2.80;1.40;;;;;;;6.15;100.00;98209.44;6123304;28;20036;-74
2023/10/20 11:18:50;;;;;;;6.07;2.97;;;;;;;6.13;100.00;98200.91;6123022;28;20029;-75
2023/10/20 11:21:49;;;;;;;2.70;1.55;;;;;;;6.09;100.00;98201.47;6122169;28;20067;-75
2023/10/20 11:24:52;;;;;;;1.98;1.20;;;;;;;6.08;100.00;98191.94;6122235;28;20087;-76
2023/10/20 11:27:54;;;;;;;3.08;1.35;;;;;;;6.11;100.00;98154.75;6122598;28;20063;-76
2023/10/20 11:30:50;;;;;;;2.03;1.13;;;;;;;6.08;100.00;98137.50;6122731;28;20033;-74
2023/10/20 11:33:45;;;;;;;3.05;1.40;;;;;;;5.98;100.00;98105.38;6108613;28;20099;-75
2023/10/20 11:36:40;;;;;;;2.43;1.40;;;;;;;6.02;100.00;98119.00;6122334;28;20040;-76
2023/10/20 11:39:38;;;;;;;3.87;2.10;;;;;;;6.07;100.00;98122.72;6097205;28;20287;-76
2023/10/20 11:42:34;;;;;;;1.80;1.10;;;;;;;6.09;100.00;98125.19;6119530;28;20464;-77
2023/10/20 11:45:29;;;;;;;2.30;1.00;;;;;;;5.89;100.00;98099.41;6122618;28;20044;-74
2023/10/20 11:48:25;;;;;;;2.00;0.60;;;;;;;5.94;100.00;98112.84;6122103;28;20012;-74
2023/10/20 11:51:20;;;;;;;2.17;0.90;;;;;;;5.97;100.00;98111.66;6126254;28;20027;-76
2023/10/20 11:54:16;;;;;;;3.60;1.23;;;;;;;5.97;100.00;98124.81;6112782;28;20032;-76
2023/10/20 11:57:11;;;;;;;2.33;1.13;;;;;;;5.91;100.00;98123.72;6128491;28;20051;-75
2023/10/20 12:00:13;;;;;;;1.73;1.00;;;;;;;5.95;100.00;98151.28;6122361;28;20032;-76
2023/10/20 12:03:09;;;;;;;1.83;0.95;;;;;;;5.98;100.00;98113.28;6121475;28;20128;-77
2023/10/20 12:06:04;;;;;;;3.42;1.52;;;;;;;5.98;100.00;98113.28;6104309;28;20499;-75
2023/10/20 12:08:59;;;;;;;3.53;1.20;;;;;;;5.92;100.00;98093.78;6130039;28;20028;-77
2023/10/20 12:11:55;;;;;;;2.30;1.37;;;;;;;5.89;100.00;98059.97;6126276;28;20086;-74
2023/10/20 12:14:50;;;;;;;2.90;1.45;;;;;;;5.82;100.00;98030.09;6121869;28;20023;-75
2023/10/20 12:17:45;;;;;;;3.77;1.03;;;;;;;5.90;100.00;98045.81;6121480;28;20029;-76
2023/10/20 12:20:41;;;;;;;1.93;1.00;;;;;;;5.86;100.00;98041.09;6121432;28;20067;-76
2023/10/20 12:23:36;;;;;;;1.50;0.82;;;;;;;5.90;100.00;98042.34;6121531;28;20094;-75
2023/10/20 12:26:32;;;;;;;1.98;0.90;;;;;;;5.91;100.00;98036.09;6108684;28;20466;-75
2023/10/20 12:29:28;;;;;;;4.20;1.10;;;;;;;5.88;100.00;98012.81;6121808;28;20456;-75
2023/10/20 12:32:23;;;;;;;2.92;1.17;;;;;;;5.82;100.00;98002.97;6120787;28;20306;-75
2023/10/20 12:35:19;;;;;;;3.10;1.30;;;;;;;5.78;100.00;97997.28;6121932;28;20051;-75
2023/10/20 12:38:16;;;;;;;1.80;0.93;;;;;;;5.92;100.00;98017.50;6121827;28;20040;-77
2023/10/20 12:41:12;;;;;;;2.53;1.00;;;;;;;5.83;100.00;98002.00;6120955;28;20040;-77
2023/10/20 12:44:07;;;;;;;1.65;0.93;;;;;;;5.91;100.00;97996.66;6121499;28;20395;-77
2023/10/20 12:47:03;;;;;;;4.28;1.45;;;;;;;5.77;100.00;97971.16;6132326;28;20586;-76
2023/10/20 12:49:58;;;;;;;2.20;1.27;;;;;;;5.85;100.00;97976.34;6127542;28;20032;-76
2023/10/20 12:52:54;;;;;;;2.95;1.42;;;;;;;5.79;100.00;97956.84;6130922;28;20028;-74
2023/10/20 12:55:52;;;;;;;2.63;1.30;;;;;;;5.76;100.00;97967.72;6127925;28;20121;-77
2023/10/20 12:58:48;;;;;;;2.55;1.60;;;;;;;5.68;100.00;97943.38;6126214;28;20258;-75
2023/10/20 13:01:43;;;;;;;3.40;1.40;;;;;;;5.77;100.00;97964.09;6120365;28;20233;-77
2023/10/20 13:04:39;;;;;;;2.25;1.20;;;;;;;5.81;100.00;97965.38;6121718;28;20379;-75
2023/10/20 13:07:34;;;;;;;2.15;1.08;;;;;;;5.65;100.00;97952.44;6120717;28;20721;-76
2023/10/20 13:10:30;;;;;;;3.15;1.52;;;;;;;5.69;100.00;97971.25;6122649;28;20452;-74
2023/10/20 13:13:25;;;;;;;3.17;1.48;;;;;;;5.71;100.00;97972.72;6126166;28;20593;-75
2023/10/20 13:16:21;;;;;;;2.67;1.48;;;;;;;5.72;100.00;97965.66;6108979;28;20037;-74
2023/10/20 13:19:16;;;;;;;2.30;1.17;;;;;;;5.68;100.00;97959.13;6125537;28;20025;-76
2023/10/20 13:22:12;;;;;;;2.37;1.50;;;;;;;5.70;100.00;97965.84;6125366;28;20495;-76
2023/10/20 13:25:08;;;;;;;2.33;1.33;;;;;;;5.67;100.00;97963.56;6125182;28;20475;-73
2023/10/20 13:28:05;;;;;;;1.67;0.93;;;;;;;5.74;100.00;97980.22;6125350;28;20039;-72
2023/10/20 13:31:03;;;;;;;2.97;1.45;;;;;;;5.61;100.00;97964.28;6133205;28;20529;-72
2023/10/20 13:33:59;;;;;;;2.42;1.30;;;;;;;5.60;100.00;97970.53;6130183;28;20544;-72
2023/10/20 13:36:55;;;;;;;2.95;1.63;;;;;;;5.69;100.00;97972.09;6125203;28;20119;-72
2023/10/20 13:39:50;;;;;;;2.97;1.50;;;;;;;5.66;100.00;97979.50;6124971;28;20039;-71
2023/10/20 13:42:48;;;;;;;2.97;1.40;;;;;;;5.62;100.00;97971.19;6124991;28;20081;-73
2023/10/20 13:45:44;;;;;;;2.47;1.33;;;;;;;5.71;100.00;98000.81;6125180;28;20471;-73
2023/10/20 13:48:39;;;;;;;3.27;1.70;;;;;;;5.73;100.00;98006.72;6124885;28;20032;-71
2023/10/20 13:51:34;;;;;;;3.73;2.03;;;;;;;5.62;100.00;97997.47;6124505;28;20085;-74
2023/10/20 13:54:31;;;;;;;2.78;1.35;;;;;;;5.49;100.00;97949.97;6124895;28;20020;-74
2023/10/20 13:57:26;;;;;;;3.63;1.83;;;;;;;5.70;100.00;97983.41;6124888;28;20426;-73
2023/10/20 14:00:22;;;;;;;2.70;1.60;;;;;;;5.59;100.00;97958.41;6124081;28;20032;-77
2023/10/20 14:03:17;;;;;;;2.97;1.65;;;;;;;5.68;100.00;97988.84;6130753;28;20020;-73
2023/10/20 14:06:14;;;;;;;3.40;1.60;;;;;;;5.67;100.00;97995.13;6128869;28;20077;-76